sensor_id;sensor_type;location;lat;lon;timestamp;temperature;humidity
78028;DHT22;67235;45.638;11.714;2023-04-24T00:00:15;16.20;74.00
78028;DHT22;67235;45.638;11.714;2023-04-24T00:02:44;16.30;73.90
78028;DHT22;67235;45.638;11.714;2023-04-24T00:05:12;16.40;73.60
78028;DHT22;67235;45.638;11.714;2023-04-24T00:07:39;16.30;73.80
78028;DHT22;67235;45.638;11.714;2023-04-24T00:10:06;16.30;73.60
78028;DHT22;67235;45.638;11.714;2023-04-24T00:12:32;16.30;73.50
78028;DHT22;67235;45.638;11.714;2023-04-24T00:14:58;16.20;73.70
78028;DHT22;67235;45.638;11.714;2023-04-24T00:17:24;16.20;73.50
78028;DHT22;67235;45.638;11.714;2023-04-24T00:19:49;16.20;73.50
78028;DHT22;67235;45.638;11.714;2023-04-24T00:22:27;16.30;73.60
78028;DHT22;67235;45.638;11.714;2023-04-24T00:24:54;16.20;73.30
78028;DHT22;67235;45.638;11.714;2023-04-24T00:27:20;16.20;73.60
78028;DHT22;67235;45.638;11.714;2023-04-24T00:29:46;16.20;73.70
78028;DHT22;67235;45.638;11.714;2023-04-24T00:32:12;16.10;74.00
78028;DHT22;67235;45.638;11.714;2023-04-24T00:34:39;16.20;73.90
78028;DHT22;67235;45.638;11.714;2023-04-24T00:37:05;16.20;74.00
78028;DHT22;67235;45.638;11.714;2023-04-24T00:39:31;16.20;74.10
78028;DHT22;67235;45.638;11.714;2023-04-24T00:41:58;16.30;73.80
78028;DHT22;67235;45.638;11.714;2023-04-24T00:44:24;16.20;73.70
78028;DHT22;67235;45.638;11.714;2023-04-24T00:46:50;16.20;73.40
78028;DHT22;67235;45.638;11.714;2023-04-24T00:49:21;16.00;73.60
78028;DHT22;67235;45.638;11.714;2023-04-24T00:51:47;16.10;73.80
78028;DHT22;67235;45.638;11.714;2023-04-24T00:54:14;16.20;73.70
78028;DHT22;67235;45.638;11.714;2023-04-24T00:56:41;16.20;73.50
78028;DHT22;67235;45.638;11.714;2023-04-24T00:59:08;16.20;73.40
78028;DHT22;67235;45.638;11.714;2023-04-24T01:01:35;16.30;73.30
78028;DHT22;67235;45.638;11.714;2023-04-24T01:04:01;16.20;73.10
78028;DHT22;67235;45.638;11.714;2023-04-24T01:06:29;16.30;73.00
78028;DHT22;67235;45.638;11.714;2023-04-24T01:08:58;16.40;73.10
78028;DHT22;67235;45.638;11.714;2023-04-24T01:11:26;16.40;72.90
78028;DHT22;67235;45.638;11.714;2023-04-24T01:13:52;16.40;72.70
78028;DHT22;67235;45.638;11.714;2023-04-24T01:16:18;16.50;72.80
78028;DHT22;67235;45.638;11.714;2023-04-24T01:18:46;16.40;72.50
78028;DHT22;67235;45.638;11.714;2023-04-24T01:21:14;16.30;72.40
78028;DHT22;67235;45.638;11.714;2023-04-24T01:23:45;16.30;72.40
78028;DHT22;67235;45.638;11.714;2023-04-24T01:26:13;16.30;72.80
78028;DHT22;67235;45.638;11.714;2023-04-24T01:28:39;16.30;72.50
78028;DHT22;67235;45.638;11.714;2023-04-24T01:31:05;16.30;72.30
78028;DHT22;67235;45.638;11.714;2023-04-24T01:33:31;16.30;71.90
78028;DHT22;67235;45.638;11.714;2023-04-24T01:35:57;16.40;71.70
78028;DHT22;67235;45.638;11.714;2023-04-24T01:38:23;16.30;72.00
78028;DHT22;67235;45.638;11.714;2023-04-24T01:40:49;16.20;71.90
78028;DHT22;67235;45.638;11.714;2023-04-24T01:43:16;16.20;71.70
78028;DHT22;67235;45.638;11.714;2023-04-24T01:45:42;16.20;71.80
78028;DHT22;67235;45.638;11.714;2023-04-24T01:48:07;16.20;71.80
78028;DHT22;67235;45.638;11.714;2023-04-24T01:50:33;16.20;71.80
78028;DHT22;67235;45.638;11.714;2023-04-24T01:52:59;16.20;71.20
78028;DHT22;67235;45.638;11.714;2023-04-24T01:55:25;16.20;70.90
78028;DHT22;67235;45.638;11.714;2023-04-24T01:57:52;16.20;70.80
78028;DHT22;67235;45.638;11.714;2023-04-24T02:00:20;16.20;71.10
78028;DHT22;67235;45.638;11.714;2023-04-24T02:02:46;16.20;71.50
78028;DHT22;67235;45.638;11.714;2023-04-24T02:05:12;16.20;71.40
78028;DHT22;67235;45.638;11.714;2023-04-24T02:07:38;16.20;71.60
78028;DHT22;67235;45.638;11.714;2023-04-24T02:10:04;16.20;71.50
78028;DHT22;67235;45.638;11.714;2023-04-24T02:12:30;16.20;71.60
78028;DHT22;67235;45.638;11.714;2023-04-24T02:14:56;16.20;71.50
78028;DHT22;67235;45.638;11.714;2023-04-24T02:17:22;16.20;71.00
78028;DHT22;67235;45.638;11.714;2023-04-24T02:19:48;16.10;71.20
78028;DHT22;67235;45.638;11.714;2023-04-24T02:22:14;16.20;71.00
78028;DHT22;67235;45.638;11.714;2023-04-24T02:24:40;16.20;70.90
78028;DHT22;67235;45.638;11.714;2023-04-24T02:27:06;16.20;70.90
78028;DHT22;67235;45.638;11.714;2023-04-24T02:29:32;16.30;71.30
78028;DHT22;67235;45.638;11.714;2023-04-24T02:31:57;16.30;70.70
78028;DHT22;67235;45.638;11.714;2023-04-24T02:34:23;16.30;70.80
78028;DHT22;67235;45.638;11.714;2023-04-24T02:36:49;16.20;71.00
78028;DHT22;67235;45.638;11.714;2023-04-24T02:39:15;16.20;70.80
78028;DHT22;67235;45.638;11.714;2023-04-24T02:41:44;16.20;70.50
78028;DHT22;67235;45.638;11.714;2023-04-24T02:44:10;16.20;70.30
78028;DHT22;67235;45.638;11.714;2023-04-24T02:46:36;16.20;70.20
78028;DHT22;67235;45.638;11.714;2023-04-24T02:49:01;16.20;69.70
78028;DHT22;67235;45.638;11.714;2023-04-24T02:51:28;16.20;69.70
78028;DHT22;67235;45.638;11.714;2023-04-24T02:53:54;16.20;69.90
78028;DHT22;67235;45.638;11.714;2023-04-24T02:56:19;16.10;69.70
78028;DHT22;67235;45.638;11.714;2023-04-24T02:58:45;16.20;69.50
78028;DHT22;67235;45.638;11.714;2023-04-24T03:01:11;16.20;69.50
78028;DHT22;67235;45.638;11.714;2023-04-24T03:03:38;16.30;69.30
78028;DHT22;67235;45.638;11.714;2023-04-24T03:06:05;16.20;69.20
78028;DHT22;67235;45.638;11.714;2023-04-24T03:08:32;16.20;69.40
78028;DHT22;67235;45.638;11.714;2023-04-24T03:10:57;16.20;69.20
78028;DHT22;67235;45.638;11.714;2023-04-24T03:13:23;16.20;69.00
78028;DHT22;67235;45.638;11.714;2023-04-24T03:15:49;16.20;68.90
78028;DHT22;67235;45.638;11.714;2023-04-24T03:18:15;16.20;68.90
78028;DHT22;67235;45.638;11.714;2023-04-24T03:20:41;16.30;69.00
78028;DHT22;67235;45.638;11.714;2023-04-24T03:23:07;16.20;69.50
78028;DHT22;67235;45.638;11.714;2023-04-24T03:25:32;16.30;69.30
78028;DHT22;67235;45.638;11.714;2023-04-24T03:27:58;16.20;69.40
78028;DHT22;67235;45.638;11.714;2023-04-24T03:30:24;16.20;69.40
78028;DHT22;67235;45.638;11.714;2023-04-24T03:32:51;16.30;69.50
78028;DHT22;67235;45.638;11.714;2023-04-24T03:35:17;16.30;69.30
78028;DHT22;67235;45.638;11.714;2023-04-24T03:37:43;16.20;68.40
78028;DHT22;67235;45.638;11.714;2023-04-24T03:40:09;16.30;68.70
78028;DHT22;67235;45.638;11.714;2023-04-24T03:42:35;16.30;68.80
78028;DHT22;67235;45.638;11.714;2023-04-24T03:45:02;16.30;68.50
78028;DHT22;67235;45.638;11.714;2023-04-24T03:47:32;16.20;68.50
78028;DHT22;67235;45.638;11.714;2023-04-24T03:50:00;16.20;68.30
78028;DHT22;67235;45.638;11.714;2023-04-24T03:52:27;16.30;69.00
78028;DHT22;67235;45.638;11.714;2023-04-24T03:54:53;16.30;68.20
78028;DHT22;67235;45.638;11.714;2023-04-24T03:57:19;16.30;68.80
78028;DHT22;67235;45.638;11.714;2023-04-24T03:59:45;16.20;69.10
78028;DHT22;67235;45.638;11.714;2023-04-24T04:02:11;16.30;68.90
78028;DHT22;67235;45.638;11.714;2023-04-24T04:04:37;16.20;69.60
78028;DHT22;67235;45.638;11.714;2023-04-24T04:07:03;16.20;70.40
78028;DHT22;67235;45.638;11.714;2023-04-24T04:09:30;16.10;69.80
78028;DHT22;67235;45.638;11.714;2023-04-24T04:11:56;16.00;69.20
78028;DHT22;67235;45.638;11.714;2023-04-24T04:14:22;16.10;69.70
78028;DHT22;67235;45.638;11.714;2023-04-24T04:16:50;16.00;69.40
78028;DHT22;67235;45.638;11.714;2023-04-24T04:19:19;15.90;70.20
78028;DHT22;67235;45.638;11.714;2023-04-24T04:21:45;15.70;70.60
78028;DHT22;67235;45.638;11.714;2023-04-24T04:24:11;15.60;71.10
78028;DHT22;67235;45.638;11.714;2023-04-24T04:26:37;15.50;71.80
78028;DHT22;67235;45.638;11.714;2023-04-24T04:29:03;15.50;71.50
78028;DHT22;67235;45.638;11.714;2023-04-24T04:31:29;15.50;72.00
78028;DHT22;67235;45.638;11.714;2023-04-24T04:33:56;15.40;73.80
78028;DHT22;67235;45.638;11.714;2023-04-24T04:36:22;15.30;74.00
78028;DHT22;67235;45.638;11.714;2023-04-24T04:38:49;15.40;74.50
78028;DHT22;67235;45.638;11.714;2023-04-24T04:41:15;15.40;74.50
78028;DHT22;67235;45.638;11.714;2023-04-24T04:43:42;15.50;73.70
78028;DHT22;67235;45.638;11.714;2023-04-24T04:46:08;15.50;73.70
78028;DHT22;67235;45.638;11.714;2023-04-24T04:48:36;15.50;73.60
78028;DHT22;67235;45.638;11.714;2023-04-24T04:51:02;15.30;75.00
78028;DHT22;67235;45.638;11.714;2023-04-24T04:53:28;15.10;75.10
78028;DHT22;67235;45.638;11.714;2023-04-24T04:55:54;15.00;74.80
78028;DHT22;67235;45.638;11.714;2023-04-24T04:58:20;14.90;75.20
78028;DHT22;67235;45.638;11.714;2023-04-24T05:00:47;14.90;75.40
78028;DHT22;67235;45.638;11.714;2023-04-24T05:03:13;14.80;75.70
78028;DHT22;67235;45.638;11.714;2023-04-24T05:05:39;14.70;76.10
78028;DHT22;67235;45.638;11.714;2023-04-24T05:08:11;14.70;76.30
78028;DHT22;67235;45.638;11.714;2023-04-24T05:10:38;14.70;76.30
78028;DHT22;67235;45.638;11.714;2023-04-24T05:13:04;14.70;76.10
78028;DHT22;67235;45.638;11.714;2023-04-24T05:15:30;14.70;76.20
78028;DHT22;67235;45.638;11.714;2023-04-24T05:17:57;14.80;76.30
78028;DHT22;67235;45.638;11.714;2023-04-24T05:20:22;14.80;76.40
78028;DHT22;67235;45.638;11.714;2023-04-24T05:22:49;14.80;76.20
78028;DHT22;67235;45.638;11.714;2023-04-24T05:25:14;14.80;76.30
78028;DHT22;67235;45.638;11.714;2023-04-24T05:27:40;14.80;76.30
78028;DHT22;67235;45.638;11.714;2023-04-24T05:30:07;14.80;76.30
78028;DHT22;67235;45.638;11.714;2023-04-24T05:32:33;14.80;76.60
78028;DHT22;67235;45.638;11.714;2023-04-24T05:34:59;15.00;76.20
78028;DHT22;67235;45.638;11.714;2023-04-24T05:37:25;14.90;76.30
78028;DHT22;67235;45.638;11.714;2023-04-24T05:39:51;15.10;76.20
78028;DHT22;67235;45.638;11.714;2023-04-24T05:42:17;15.00;76.40
78028;DHT22;67235;45.638;11.714;2023-04-24T05:44:42;15.00;76.40
78028;DHT22;67235;45.638;11.714;2023-04-24T05:47:09;15.00;76.60
78028;DHT22;67235;45.638;11.714;2023-04-24T05:49:34;15.10;76.40
78028;DHT22;67235;45.638;11.714;2023-04-24T05:52:00;15.00;76.40
78028;DHT22;67235;45.638;11.714;2023-04-24T05:54:26;15.00;76.40
78028;DHT22;67235;45.638;11.714;2023-04-24T05:56:52;15.10;76.20
78028;DHT22;67235;45.638;11.714;2023-04-24T05:59:19;15.10;76.60
78028;DHT22;67235;45.638;11.714;2023-04-24T06:01:45;15.10;76.20
78028;DHT22;67235;45.638;11.714;2023-04-24T06:04:12;15.20;76.40
78028;DHT22;67235;45.638;11.714;2023-04-24T06:06:39;15.10;76.60
78028;DHT22;67235;45.638;11.714;2023-04-24T06:09:05;15.10;76.50
78028;DHT22;67235;45.638;11.714;2023-04-24T06:11:32;15.20;76.60
78028;DHT22;67235;45.638;11.714;2023-04-24T06:13:58;15.20;76.20
78028;DHT22;67235;45.638;11.714;2023-04-24T06:16:24;15.20;76.60
78028;DHT22;67235;45.638;11.714;2023-04-24T06:18:50;15.10;76.70
78028;DHT22;67235;45.638;11.714;2023-04-24T06:21:16;14.90;76.60
78028;DHT22;67235;45.638;11.714;2023-04-24T06:23:43;15.00;76.30
78028;DHT22;67235;45.638;11.714;2023-04-24T06:26:10;15.00;76.40
78028;DHT22;67235;45.638;11.714;2023-04-24T06:28:37;14.90;76.90
78028;DHT22;67235;45.638;11.714;2023-04-24T06:31:05;14.70;77.20
78028;DHT22;67235;45.638;11.714;2023-04-24T06:33:32;14.80;77.00
78028;DHT22;67235;45.638;11.714;2023-04-24T06:36:13;14.70;77.20
78028;DHT22;67235;45.638;11.714;2023-04-24T06:39:00;14.70;77.30
78028;DHT22;67235;45.638;11.714;2023-04-24T06:41:30;14.80;77.40
78028;DHT22;67235;45.638;11.714;2023-04-24T06:43:58;14.80;77.30
78028;DHT22;67235;45.638;11.714;2023-04-24T06:46:24;14.80;77.20
78028;DHT22;67235;45.638;11.714;2023-04-24T06:48:55;14.90;77.20
78028;DHT22;67235;45.638;11.714;2023-04-24T06:51:26;14.80;76.70
78028;DHT22;67235;45.638;11.714;2023-04-24T06:53:54;14.90;76.50
78028;DHT22;67235;45.638;11.714;2023-04-24T06:56:25;14.70;76.40
78028;DHT22;67235;45.638;11.714;2023-04-24T06:58:52;14.40;76.90
78028;DHT22;67235;45.638;11.714;2023-04-24T07:01:20;14.40;76.80
78028;DHT22;67235;45.638;11.714;2023-04-24T07:03:47;14.40;77.00
78028;DHT22;67235;45.638;11.714;2023-04-24T07:06:16;14.40;76.90
78028;DHT22;67235;45.638;11.714;2023-04-24T07:08:48;14.40;76.60
78028;DHT22;67235;45.638;11.714;2023-04-24T07:11:16;14.50;76.30
78028;DHT22;67235;45.638;11.714;2023-04-24T07:13:45;14.50;76.30
78028;DHT22;67235;45.638;11.714;2023-04-24T07:16:17;14.50;76.30
78028;DHT22;67235;45.638;11.714;2023-04-24T07:18:48;14.50;76.60
78028;DHT22;67235;45.638;11.714;2023-04-24T07:21:16;14.50;76.30
78028;DHT22;67235;45.638;11.714;2023-04-24T07:23:43;14.60;76.40
78028;DHT22;67235;45.638;11.714;2023-04-24T07:26:10;14.50;76.90
78028;DHT22;67235;45.638;11.714;2023-04-24T07:28:37;14.40;77.40
78028;DHT22;67235;45.638;11.714;2023-04-24T07:31:05;14.30;77.00
78028;DHT22;67235;45.638;11.714;2023-04-24T07:33:31;14.30;76.40
78028;DHT22;67235;45.638;11.714;2023-04-24T07:35:58;14.40;76.30
78028;DHT22;67235;45.638;11.714;2023-04-24T07:38:24;14.60;75.40
78028;DHT22;67235;45.638;11.714;2023-04-24T07:40:51;14.40;72.40
78028;DHT22;67235;45.638;11.714;2023-04-24T07:43:17;14.20;71.90
78028;DHT22;67235;45.638;11.714;2023-04-24T07:45:43;14.20;71.70
78028;DHT22;67235;45.638;11.714;2023-04-24T07:48:10;14.10;72.10
78028;DHT22;67235;45.638;11.714;2023-04-24T07:50:36;14.10;72.60
78028;DHT22;67235;45.638;11.714;2023-04-24T07:53:02;14.40;72.10
78028;DHT22;67235;45.638;11.714;2023-04-24T07:55:28;14.40;73.40
78028;DHT22;67235;45.638;11.714;2023-04-24T07:57:54;14.50;73.20
78028;DHT22;67235;45.638;11.714;2023-04-24T08:00:20;14.50;73.50
78028;DHT22;67235;45.638;11.714;2023-04-24T08:02:46;14.60;73.10
78028;DHT22;67235;45.638;11.714;2023-04-24T08:05:12;14.70;73.50
78028;DHT22;67235;45.638;11.714;2023-04-24T08:07:38;14.80;72.90
78028;DHT22;67235;45.638;11.714;2023-04-24T08:10:04;14.90;73.00
78028;DHT22;67235;45.638;11.714;2023-04-24T08:12:30;15.20;72.70
78028;DHT22;67235;45.638;11.714;2023-04-24T08:14:56;15.30;71.80
78028;DHT22;67235;45.638;11.714;2023-04-24T08:17:23;15.60;70.90
78028;DHT22;67235;45.638;11.714;2023-04-24T08:19:49;15.90;70.30
78028;DHT22;67235;45.638;11.714;2023-04-24T08:22:16;16.00;70.20
78028;DHT22;67235;45.638;11.714;2023-04-24T08:24:42;16.30;70.20
78028;DHT22;67235;45.638;11.714;2023-04-24T08:27:09;16.70;70.60
78028;DHT22;67235;45.638;11.714;2023-04-24T08:29:36;16.90;70.00
78028;DHT22;67235;45.638;11.714;2023-04-24T08:32:02;16.90;69.50
78028;DHT22;67235;45.638;11.714;2023-04-24T08:34:28;17.00;69.90
78028;DHT22;67235;45.638;11.714;2023-04-24T08:36:54;17.00;69.90
78028;DHT22;67235;45.638;11.714;2023-04-24T08:39:20;17.10;69.20
78028;DHT22;67235;45.638;11.714;2023-04-24T08:41:47;17.20;70.20
78028;DHT22;67235;45.638;11.714;2023-04-24T08:44:13;17.40;69.80
78028;DHT22;67235;45.638;11.714;2023-04-24T08:46:43;17.70;67.90
78028;DHT22;67235;45.638;11.714;2023-04-24T08:49:12;18.00;67.70
78028;DHT22;67235;45.638;11.714;2023-04-24T08:51:39;17.70;68.20
78028;DHT22;67235;45.638;11.714;2023-04-24T08:54:05;17.80;67.60
78028;DHT22;67235;45.638;11.714;2023-04-24T08:56:34;18.00;68.30
78028;DHT22;67235;45.638;11.714;2023-04-24T08:59:04;18.20;67.10
78028;DHT22;67235;45.638;11.714;2023-04-24T09:01:32;18.50;66.80
78028;DHT22;67235;45.638;11.714;2023-04-24T09:04:03;18.60;67.00
78028;DHT22;67235;45.638;11.714;2023-04-24T09:06:30;18.90;65.70
78028;DHT22;67235;45.638;11.714;2023-04-24T09:09:00;18.90;65.60
78028;DHT22;67235;45.638;11.714;2023-04-24T09:11:27;19.00;65.60
78028;DHT22;67235;45.638;11.714;2023-04-24T09:13:56;19.20;65.90
78028;DHT22;67235;45.638;11.714;2023-04-24T09:16:22;19.30;66.10
78028;DHT22;67235;45.638;11.714;2023-04-24T09:18:50;19.40;64.80
78028;DHT22;67235;45.638;11.714;2023-04-24T09:21:16;19.50;65.00
78028;DHT22;67235;45.638;11.714;2023-04-24T09:23:41;19.60;65.20
78028;DHT22;67235;45.638;11.714;2023-04-24T09:26:09;19.70;65.00
78028;DHT22;67235;45.638;11.714;2023-04-24T09:28:37;19.70;64.80
78028;DHT22;67235;45.638;11.714;2023-04-24T09:31:08;19.80;59.40
78028;DHT22;67235;45.638;11.714;2023-04-24T09:33:34;20.10;63.80
78028;DHT22;67235;45.638;11.714;2023-04-24T09:36:01;20.20;57.90
78028;DHT22;67235;45.638;11.714;2023-04-24T09:38:35;20.30;54.10
78028;DHT22;67235;45.638;11.714;2023-04-24T09:41:03;20.40;53.70
78028;DHT22;67235;45.638;11.714;2023-04-24T09:43:30;20.10;52.90
78028;DHT22;67235;45.638;11.714;2023-04-24T09:45:57;20.00;57.50
78028;DHT22;67235;45.638;11.714;2023-04-24T09:48:34;19.90;53.50
78028;DHT22;67235;45.638;11.714;2023-04-24T09:51:04;19.90;58.50
78028;DHT22;67235;45.638;11.714;2023-04-24T09:53:32;20.00;58.90
78028;DHT22;67235;45.638;11.714;2023-04-24T09:56:18;20.10;52.70
78028;DHT22;67235;45.638;11.714;2023-04-24T09:58:46;20.60;54.90
78028;DHT22;67235;45.638;11.714;2023-04-24T10:01:28;20.70;54.60
78028;DHT22;67235;45.638;11.714;2023-04-24T10:03:58;20.70;51.80
78028;DHT22;67235;45.638;11.714;2023-04-24T10:06:36;20.60;52.50
78028;DHT22;67235;45.638;11.714;2023-04-24T10:09:04;20.50;49.20
78028;DHT22;67235;45.638;11.714;2023-04-24T10:11:33;20.60;48.70
78028;DHT22;67235;45.638;11.714;2023-04-24T10:14:06;20.40;48.40
78028;DHT22;67235;45.638;11.714;2023-04-24T10:16:34;20.50;46.10
78028;DHT22;67235;45.638;11.714;2023-04-24T10:19:02;20.40;47.10
78028;DHT22;67235;45.638;11.714;2023-04-24T10:21:28;20.90;46.80
78028;DHT22;67235;45.638;11.714;2023-04-24T10:23:54;21.30;44.10
78028;DHT22;67235;45.638;11.714;2023-04-24T10:26:21;21.40;46.50
78028;DHT22;67235;45.638;11.714;2023-04-24T10:28:48;21.50;43.80
78028;DHT22;67235;45.638;11.714;2023-04-24T10:31:14;21.40;47.40
78028;DHT22;67235;45.638;11.714;2023-04-24T10:33:42;21.60;48.10
78028;DHT22;67235;45.638;11.714;2023-04-24T10:36:10;21.80;49.40
78028;DHT22;67235;45.638;11.714;2023-04-24T10:38:38;21.70;46.10
78028;DHT22;67235;45.638;11.714;2023-04-24T10:41:10;21.60;44.00
78028;DHT22;67235;45.638;11.714;2023-04-24T10:43:41;21.40;42.90
78028;DHT22;67235;45.638;11.714;2023-04-24T10:46:10;21.50;44.00
78028;DHT22;67235;45.638;11.714;2023-04-24T10:48:53;21.20;43.70
78028;DHT22;67235;45.638;11.714;2023-04-24T10:51:24;21.50;44.00
78028;DHT22;67235;45.638;11.714;2023-04-24T10:53:51;21.50;45.00
78028;DHT22;67235;45.638;11.714;2023-04-24T10:56:17;21.60;47.20
78028;DHT22;67235;45.638;11.714;2023-04-24T10:58:50;21.90;48.80
78028;DHT22;67235;45.638;11.714;2023-04-24T11:01:30;22.10;46.40
78028;DHT22;67235;45.638;11.714;2023-04-24T11:04:01;22.10;44.50
78028;DHT22;67235;45.638;11.714;2023-04-24T11:06:31;22.10;46.70
78028;DHT22;67235;45.638;11.714;2023-04-24T11:09:04;22.10;45.50
78028;DHT22;67235;45.638;11.714;2023-04-24T11:11:33;22.00;45.40
78028;DHT22;67235;45.638;11.714;2023-04-24T11:14:02;22.30;42.00
78028;DHT22;67235;45.638;11.714;2023-04-24T11:16:37;22.00;45.40
78028;DHT22;67235;45.638;11.714;2023-04-24T11:19:17;22.10;43.00
78028;DHT22;67235;45.638;11.714;2023-04-24T11:21:59;22.00;47.20
78028;DHT22;67235;45.638;11.714;2023-04-24T11:24:33;21.80;43.50
78028;DHT22;67235;45.638;11.714;2023-04-24T11:27:20;22.30;45.60
78028;DHT22;67235;45.638;11.714;2023-04-24T11:30:00;22.80;47.40
78028;DHT22;67235;45.638;11.714;2023-04-24T11:35:04;22.00;46.40
78028;DHT22;67235;45.638;11.714;2023-04-24T11:37:38;22.20;45.10
78028;DHT22;67235;45.638;11.714;2023-04-24T11:40:06;22.20;44.20
78028;DHT22;67235;45.638;11.714;2023-04-24T11:42:36;22.10;45.10
78028;DHT22;67235;45.638;11.714;2023-04-24T11:45:06;22.00;45.20
78028;DHT22;67235;45.638;11.714;2023-04-24T11:47:32;21.90;44.60
78028;DHT22;67235;45.638;11.714;2023-04-24T11:49:59;21.90;45.90
78028;DHT22;67235;45.638;11.714;2023-04-24T11:52:26;21.70;46.00
78028;DHT22;67235;45.638;11.714;2023-04-24T11:54:52;21.60;46.20
78028;DHT22;67235;45.638;11.714;2023-04-24T11:57:25;21.80;44.60
78028;DHT22;67235;45.638;11.714;2023-04-24T11:59:54;22.10;47.00
78028;DHT22;67235;45.638;11.714;2023-04-24T12:02:27;22.00;49.40
78028;DHT22;67235;45.638;11.714;2023-04-24T12:04:54;22.00;48.20
78028;DHT22;67235;45.638;11.714;2023-04-24T12:07:20;21.90;46.80
78028;DHT22;67235;45.638;11.714;2023-04-24T12:09:48;21.90;47.40
78028;DHT22;67235;45.638;11.714;2023-04-24T12:12:16;22.00;50.00
78028;DHT22;67235;45.638;11.714;2023-04-24T12:14:54;22.20;48.10
78028;DHT22;67235;45.638;11.714;2023-04-24T12:17:27;22.50;48.00
78028;DHT22;67235;45.638;11.714;2023-04-24T12:19:58;22.90;43.10
78028;DHT22;67235;45.638;11.714;2023-04-24T12:22:24;23.00;45.10
78028;DHT22;67235;45.638;11.714;2023-04-24T12:24:57;23.10;45.20
78028;DHT22;67235;45.638;11.714;2023-04-24T12:27:24;23.20;43.90
78028;DHT22;67235;45.638;11.714;2023-04-24T12:29:57;23.10;46.70
78028;DHT22;67235;45.638;11.714;2023-04-24T12:32:23;22.90;44.40
78028;DHT22;67235;45.638;11.714;2023-04-24T12:34:51;23.00;46.90
78028;DHT22;67235;45.638;11.714;2023-04-24T12:37:17;23.10;45.90
78028;DHT22;67235;45.638;11.714;2023-04-24T12:40:06;22.80;46.90
78028;DHT22;67235;45.638;11.714;2023-04-24T12:42:33;22.70;49.50
78028;DHT22;67235;45.638;11.714;2023-04-24T12:45:03;23.00;43.40
78028;DHT22;67235;45.638;11.714;2023-04-24T12:47:30;22.90;44.60
78028;DHT22;67235;45.638;11.714;2023-04-24T12:49:56;23.30;46.50
78028;DHT22;67235;45.638;11.714;2023-04-24T12:52:26;22.80;44.90
78028;DHT22;67235;45.638;11.714;2023-04-24T12:54:57;23.20;46.80
78028;DHT22;67235;45.638;11.714;2023-04-24T12:57:24;23.10;47.50
78028;DHT22;67235;45.638;11.714;2023-04-24T12:59:53;23.20;45.50
78028;DHT22;67235;45.638;11.714;2023-04-24T13:02:19;23.40;47.00
78028;DHT22;67235;45.638;11.714;2023-04-24T13:04:47;23.10;48.60
78028;DHT22;67235;45.638;11.714;2023-04-24T13:07:16;24.00;44.10
78028;DHT22;67235;45.638;11.714;2023-04-24T13:09:43;24.00;42.60
78028;DHT22;67235;45.638;11.714;2023-04-24T13:12:09;23.40;46.40
78028;DHT22;67235;45.638;11.714;2023-04-24T13:14:36;23.90;41.90
78028;DHT22;67235;45.638;11.714;2023-04-24T13:17:02;24.30;42.20
78028;DHT22;67235;45.638;11.714;2023-04-24T13:19:28;23.80;44.50
78028;DHT22;67235;45.638;11.714;2023-04-24T13:21:55;23.60;44.40
78028;DHT22;67235;45.638;11.714;2023-04-24T13:24:23;23.70;43.40
78028;DHT22;67235;45.638;11.714;2023-04-24T13:26:52;23.80;42.40
78028;DHT22;67235;45.638;11.714;2023-04-24T13:29:18;23.50;46.60
78028;DHT22;67235;45.638;11.714;2023-04-24T13:31:44;23.10;47.40
78028;DHT22;67235;45.638;11.714;2023-04-24T13:34:10;22.90;46.30
78028;DHT22;67235;45.638;11.714;2023-04-24T13:36:36;22.70;45.50
78028;DHT22;67235;45.638;11.714;2023-04-24T13:39:02;22.50;48.60
78028;DHT22;67235;45.638;11.714;2023-04-24T13:41:33;22.10;50.20
78028;DHT22;67235;45.638;11.714;2023-04-24T13:44:07;22.00;49.50
78028;DHT22;67235;45.638;11.714;2023-04-24T13:46:36;21.90;48.10
78028;DHT22;67235;45.638;11.714;2023-04-24T13:49:04;22.40;49.40
78028;DHT22;67235;45.638;11.714;2023-04-24T13:51:30;22.80;47.40
78028;DHT22;67235;45.638;11.714;2023-04-24T13:53:56;22.90;46.00
78028;DHT22;67235;45.638;11.714;2023-04-24T13:56:26;22.80;44.70
78028;DHT22;67235;45.638;11.714;2023-04-24T13:58:55;23.00;49.80
78028;DHT22;67235;45.638;11.714;2023-04-24T14:01:24;23.30;46.10
78028;DHT22;67235;45.638;11.714;2023-04-24T14:03:51;23.20;44.20
78028;DHT22;67235;45.638;11.714;2023-04-24T14:06:18;23.30;44.10
78028;DHT22;67235;45.638;11.714;2023-04-24T14:08:45;22.60;45.70
78028;DHT22;67235;45.638;11.714;2023-04-24T14:11:10;22.30;47.10
78028;DHT22;67235;45.638;11.714;2023-04-24T14:13:37;22.40;48.10
78028;DHT22;67235;45.638;11.714;2023-04-24T14:16:06;22.60;47.00
78028;DHT22;67235;45.638;11.714;2023-04-24T14:18:32;22.80;45.20
78028;DHT22;67235;45.638;11.714;2023-04-24T14:20:58;22.70;44.00
78028;DHT22;67235;45.638;11.714;2023-04-24T14:23:24;22.20;47.10
78028;DHT22;67235;45.638;11.714;2023-04-24T14:25:50;22.60;48.60
78028;DHT22;67235;45.638;11.714;2023-04-24T14:28:20;22.70;47.00
78028;DHT22;67235;45.638;11.714;2023-04-24T14:30:47;22.40;46.20
78028;DHT22;67235;45.638;11.714;2023-04-24T14:33:13;22.20;46.80
78028;DHT22;67235;45.638;11.714;2023-04-24T14:35:40;22.30;44.70
78028;DHT22;67235;45.638;11.714;2023-04-24T14:38:07;22.50;45.20
78028;DHT22;67235;45.638;11.714;2023-04-24T14:40:33;22.70;46.70
78028;DHT22;67235;45.638;11.714;2023-04-24T14:42:59;22.40;46.10
78028;DHT22;67235;45.638;11.714;2023-04-24T14:45:26;22.60;44.60
78028;DHT22;67235;45.638;11.714;2023-04-24T14:47:52;22.60;48.00
78028;DHT22;67235;45.638;11.714;2023-04-24T14:50:18;22.60;42.40
78028;DHT22;67235;45.638;11.714;2023-04-24T14:52:44;22.40;44.30
78028;DHT22;67235;45.638;11.714;2023-04-24T14:55:10;22.20;46.00
78028;DHT22;67235;45.638;11.714;2023-04-24T14:57:37;21.90;47.30
78028;DHT22;67235;45.638;11.714;2023-04-24T15:00:04;21.90;48.10
78028;DHT22;67235;45.638;11.714;2023-04-24T15:02:32;22.00;47.80
78028;DHT22;67235;45.638;11.714;2023-04-24T15:04:58;21.70;45.70
78028;DHT22;67235;45.638;11.714;2023-04-24T15:07:24;21.50;47.90
78028;DHT22;67235;45.638;11.714;2023-04-24T15:09:50;21.20;49.10
78028;DHT22;67235;45.638;11.714;2023-04-24T15:12:17;21.20;48.30
78028;DHT22;67235;45.638;11.714;2023-04-24T15:14:42;21.30;52.40
78028;DHT22;67235;45.638;11.714;2023-04-24T15:17:08;21.30;49.30
78028;DHT22;67235;45.638;11.714;2023-04-24T15:19:34;21.30;50.30